createdAt,value
2018-04-07T00:00:54.245Z,1007.42
2018-04-07T00:01:54.220Z,1007.47
2018-04-07T00:02:54.200Z,1007.46
2018-04-07T00:03:54.186Z,1007.41
2018-04-07T00:04:54.182Z,1007.42
2018-04-07T00:05:54.154Z,1007.40
2018-04-07T00:06:54.131Z,1007.37
2018-04-07T00:07:54.118Z,1007.38
2018-04-07T00:08:54.092Z,1007.38
2018-04-07T00:09:54.082Z,1007.33
2018-04-07T00:10:54.062Z,1007.35
2018-04-07T00:11:54.040Z,1007.32
2018-04-07T00:12:54.022Z,1007.34
2018-04-07T00:13:54.013Z,1007.32
2018-04-07T00:14:53.988Z,1007.32
2018-04-07T00:15:53.965Z,1007.36
2018-04-07T00:16:53.947Z,1007.34
2018-04-07T00:17:53.930Z,1007.33
2018-04-07T00:18:53.909Z,1007.28
2018-04-07T00:19:53.900Z,1007.29
2018-04-07T00:20:53.883Z,1007.32
2018-04-07T00:21:53.864Z,1007.28
2018-04-07T00:22:53.840Z,1007.26
2018-04-07T00:23:53.820Z,1007.25
2018-04-07T00:24:53.814Z,1007.26
2018-04-07T00:25:53.789Z,1007.31
2018-04-07T00:26:53.774Z,1007.24
2018-04-07T00:27:53.749Z,1007.28
2018-04-07T00:28:53.730Z,1007.24
2018-04-07T00:29:53.711Z,1007.21
2018-04-07T00:30:53.700Z,1007.20
2018-04-07T00:31:53.686Z,1007.20
2018-04-07T00:32:53.660Z,1007.16
2018-04-07T00:33:53.640Z,1007.11
2018-04-07T00:34:53.626Z,1007.10
2018-04-07T00:35:53.610Z,1007.11
2018-04-07T00:36:53.587Z,1007.12
2018-04-07T00:37:53.574Z,1007.11
2018-04-07T00:38:53.552Z,1007.10
2018-04-07T00:39:53.530Z,1007.09
2018-04-07T00:40:53.510Z,1007.11
2018-04-07T00:41:53.491Z,1007.09
2018-04-07T00:42:53.484Z,1007.09
2018-04-07T00:43:53.455Z,1007.10
2018-04-07T00:44:53.441Z,1007.10
2018-04-07T00:45:53.419Z,1007.10
2018-04-07T00:46:53.401Z,1007.07
2018-04-07T00:47:53.388Z,1007.09
2018-04-07T00:48:53.369Z,1007.12
2018-04-07T00:49:53.343Z,1007.14
2018-04-07T00:50:53.325Z,1007.11
2018-04-07T00:51:53.307Z,1007.17
2018-04-07T00:52:53.293Z,1007.17
2018-04-07T00:53:53.272Z,1007.20
2018-04-07T00:54:53.263Z,1007.20
2018-04-07T00:55:53.235Z,1007.24
2018-04-07T00:56:53.221Z,1007.26
2018-04-07T00:57:53.202Z,1007.31
2018-04-07T00:58:53.179Z,1007.28
2018-04-07T00:59:53.161Z,1007.33
2018-04-07T01:00:53.142Z,1007.37
2018-04-07T01:01:53.123Z,1007.43
2018-04-07T01:02:53.106Z,1007.45
2018-04-07T01:03:53.087Z,1007.46
2018-04-07T01:04:53.071Z,1007.46
2018-04-07T01:05:53.053Z,1007.46
2018-04-07T01:06:53.033Z,1007.43
2018-04-07T01:07:53.016Z,1007.41
2018-04-07T01:08:53.001Z,1007.42
2018-04-07T01:09:52.982Z,1007.41
2018-04-07T01:10:52.965Z,1007.40
2018-04-07T01:11:52.941Z,1007.39
2018-04-07T01:12:52.924Z,1007.40
2018-04-07T01:13:52.914Z,1007.38
2018-04-07T01:14:52.895Z,1007.37
2018-04-07T01:15:52.872Z,1007.34
2018-04-07T01:16:52.851Z,1007.34
2018-04-07T01:17:52.831Z,1007.37
2018-04-07T01:18:52.818Z,1007.32
2018-04-07T01:19:52.803Z,1007.38
2018-04-07T01:20:52.782Z,1007.39
2018-04-07T01:21:52.760Z,1007.37
2018-04-07T01:22:52.741Z,1007.39
2018-04-07T01:23:52.727Z,1007.33
2018-04-07T01:24:52.708Z,1007.39
2018-04-07T01:25:52.692Z,1007.37
2018-04-07T01:26:52.672Z,1007.40
2018-04-07T01:27:52.652Z,1007.37
2018-04-07T01:28:52.631Z,1007.36
2018-04-07T01:29:52.610Z,1007.34
2018-04-07T01:30:52.599Z,1007.38
2018-04-07T01:31:52.581Z,1007.33
2018-04-07T01:32:52.562Z,1007.28
2018-04-07T01:33:52.542Z,1007.29
2018-04-07T01:34:52.528Z,1007.28
2018-04-07T01:35:52.512Z,1007.29
2018-04-07T01:36:52.490Z,1007.22
2018-04-07T01:37:52.471Z,1007.22
2018-04-07T01:38:52.452Z,1007.18
2018-04-07T01:39:52.432Z,1007.20
2018-04-07T01:40:52.412Z,1007.21
2018-04-07T01:41:52.394Z,1007.14
2018-04-07T01:42:52.382Z,1007.17
2018-04-07T01:43:52.363Z,1007.15
2018-04-07T01:44:52.340Z,1007.16
2018-04-07T01:45:52.319Z,1007.16
2018-04-07T01:46:52.304Z,1007.17
2018-04-07T01:47:52.293Z,1007.15
2018-04-07T01:48:52.266Z,1007.13
2018-04-07T01:49:52.251Z,1007.12
2018-04-07T01:50:52.231Z,1007.09
2018-04-07T01:51:52.212Z,1007.11
2018-04-07T01:52:52.190Z,1007.07
2018-04-07T01:53:52.174Z,1007.09
2018-04-07T01:54:52.159Z,1007.09
2018-04-07T01:55:52.141Z,1007.08
2018-04-07T01:56:52.121Z,1007.08
2018-04-07T01:57:52.100Z,1007.06
2018-04-07T01:58:52.080Z,1007.07
2018-04-07T01:59:52.068Z,1007.07
2018-04-07T02:00:52.047Z,1007.07
2018-04-07T02:01:52.034Z,1007.05
2018-04-07T02:02:52.010Z,1007.06
2018-04-07T02:03:51.995Z,1007.08
2018-04-07T02:04:51.970Z,1007.07
2018-04-07T02:05:51.952Z,1007.07
2018-04-07T02:06:51.936Z,1007.04
2018-04-07T02:07:51.922Z,1007.07
2018-04-07T02:08:51.900Z,1007.02
2018-04-07T02:09:51.879Z,1007.03
2018-04-07T02:10:51.860Z,1007.03
2018-04-07T02:11:51.840Z,1007.04
2018-04-07T02:12:51.826Z,1007.09
2018-04-07T02:13:51.811Z,1007.07
2018-04-07T02:14:51.788Z,1007.04
2018-04-07T02:15:51.772Z,1007.04
2018-04-07T02:16:51.751Z,1007.05
2018-04-07T02:17:51.741Z,1007.08
2018-04-07T02:18:51.716Z,1007.08
2018-04-07T02:19:51.693Z,1007.10
2018-04-07T02:20:51.680Z,1007.07
2018-04-07T02:21:51.658Z,1007.02
2018-04-07T02:22:51.639Z,1007.00
2018-04-07T02:23:51.621Z,1007.02
2018-04-07T02:24:51.602Z,1006.96
2018-04-07T02:25:51.582Z,1006.94
2018-04-07T02:26:51.561Z,1006.92
2018-04-07T02:27:51.544Z,1006.89
2018-04-07T02:28:51.527Z,1006.89
2018-04-07T02:29:51.503Z,1006.90
2018-04-07T02:30:51.490Z,1006.86
2018-04-07T02:31:51.475Z,1006.84
2018-04-07T02:32:51.515Z,1006.84
2018-04-07T02:33:51.431Z,1006.83
2018-04-07T02:34:51.413Z,1006.83
2018-04-07T02:35:51.396Z,1006.78
2018-04-07T02:36:51.381Z,1006.79
2018-04-07T02:37:51.354Z,1006.77
2018-04-07T02:38:51.338Z,1006.72
2018-04-07T02:39:51.320Z,1006.75
2018-04-07T02:40:51.296Z,1006.73
2018-04-07T02:41:51.281Z,1006.74
2018-04-07T02:42:51.260Z,1006.77
2018-04-07T02:43:51.241Z,1006.76
2018-04-07T02:44:51.222Z,1006.76
2018-04-07T02:45:51.202Z,1006.79
2018-04-07T02:46:51.188Z,1006.78
2018-04-07T02:47:51.169Z,1006.77
2018-04-07T02:48:51.151Z,1006.74
2018-04-07T02:49:51.131Z,1006.80
2018-04-07T02:50:51.109Z,1006.76
2018-04-07T02:51:51.094Z,1006.73
2018-04-07T02:52:51.071Z,1006.73
2018-04-07T02:53:51.052Z,1006.72
2018-04-07T02:54:51.032Z,1006.69
2018-04-07T02:55:51.012Z,1006.67
2018-04-07T02:56:51.000Z,1006.69
2018-04-07T02:57:50.977Z,1006.67
2018-04-07T02:58:50.965Z,1006.67
2018-04-07T02:59:50.936Z,1006.72
2018-04-07T03:00:50.918Z,1006.67
2018-04-07T03:01:50.898Z,1006.66
2018-04-07T03:02:50.930Z,1006.69
2018-04-07T03:03:50.869Z,1006.69
2018-04-07T03:04:50.840Z,1006.68
2018-04-07T03:05:50.826Z,1006.65
2018-04-07T03:06:50.808Z,1006.64
2018-04-07T03:07:50.782Z,1006.66
2018-04-07T03:08:50.772Z,1006.60
2018-04-07T03:09:50.749Z,1006.61
2018-04-07T03:10:50.727Z,1006.63
2018-04-07T03:11:50.708Z,1006.64
2018-04-07T03:12:50.693Z,1006.64
2018-04-07T03:13:50.670Z,1006.59
2018-04-07T03:14:50.653Z,1006.60
2018-04-07T03:15:50.633Z,1006.59
2018-04-07T03:16:50.615Z,1006.57
2018-04-07T03:17:50.601Z,1006.53
2018-04-07T03:18:50.573Z,1006.52
2018-04-07T03:19:50.559Z,1006.48
2018-04-07T03:20:50.567Z,1006.44
2018-04-07T03:21:50.518Z,1006.39
2018-04-07T03:22:50.504Z,1006.32
2018-04-07T03:23:50.482Z,1006.34
2018-04-07T03:24:50.460Z,1006.30
2018-04-07T03:25:50.441Z,1006.26
2018-04-07T03:26:50.422Z,1006.28
2018-04-07T03:27:50.402Z,1006.34
2018-04-07T03:28:50.383Z,1006.37
2018-04-07T03:29:50.364Z,1006.34
2018-04-07T03:30:50.348Z,1006.41
2018-04-07T03:31:50.331Z,1006.37
2018-04-07T03:32:50.306Z,1006.39
2018-04-07T03:33:50.286Z,1006.36
2018-04-07T03:34:50.272Z,1006.39
2018-04-07T03:35:50.251Z,1006.40
2018-04-07T03:36:50.229Z,1006.39
2018-04-07T03:37:50.211Z,1006.40
2018-04-07T03:38:50.191Z,1006.40
2018-04-07T03:39:50.175Z,1006.38
2018-04-07T03:40:50.156Z,1006.34
2018-04-07T03:41:50.142Z,1006.33
2018-04-07T03:42:50.118Z,1006.28
2018-04-07T03:43:50.103Z,1006.30
2018-04-07T03:44:50.075Z,1006.33
2018-04-07T03:45:50.055Z,1006.32
2018-04-07T03:46:50.042Z,1006.39
2018-04-07T03:47:50.021Z,1006.40
2018-04-07T03:48:49.997Z,1006.37
2018-04-07T03:49:49.983Z,1006.35
2018-04-07T03:50:49.956Z,1006.37
2018-04-07T03:51:49.942Z,1006.37
2018-04-07T03:52:49.921Z,1006.36
2018-04-07T03:53:49.901Z,1006.39
2018-04-07T03:54:49.881Z,1006.33
2018-04-07T03:55:49.860Z,1006.33
2018-04-07T03:56:49.841Z,1006.27
2018-04-07T03:57:49.828Z,1006.31
2018-04-07T03:58:49.805Z,1006.26
2018-04-07T03:59:49.785Z,1006.27
2018-04-07T04:00:49.767Z,1006.27
2018-04-07T04:01:49.751Z,1006.27
2018-04-07T04:02:49.731Z,1006.25
2018-04-07T04:03:49.706Z,1006.28
2018-04-07T04:04:49.692Z,1006.27
2018-04-07T04:05:49.679Z,1006.29
2018-04-07T04:06:49.649Z,1006.31
2018-04-07T04:07:49.630Z,1006.33
2018-04-07T04:08:49.612Z,1006.37
2018-04-07T04:09:49.591Z,1006.35
2018-04-07T04:10:49.579Z,1006.34
2018-04-07T04:11:49.563Z,1006.34
2018-04-07T04:12:49.541Z,1006.36
2018-04-07T04:13:49.520Z,1006.33
2018-04-07T04:14:49.502Z,1006.35
2018-04-07T04:15:49.483Z,1006.34
2018-04-07T04:16:49.459Z,1006.32
2018-04-07T04:17:49.441Z,1006.34
2018-04-07T04:18:49.421Z,1006.35
2018-04-07T04:19:49.399Z,1006.34
2018-04-07T04:20:49.382Z,1006.35
2018-04-07T04:21:49.362Z,1006.30
2018-04-07T04:22:49.341Z,1006.32
2018-04-07T04:23:49.322Z,1006.31
2018-04-07T04:24:49.303Z,1006.32
2018-04-07T04:25:49.288Z,1006.32
2018-04-07T04:26:49.266Z,1006.31
2018-04-07T04:27:49.251Z,1006.30
2018-04-07T04:28:49.225Z,1006.30
2018-04-07T04:29:49.215Z,1006.30
2018-04-07T04:30:49.196Z,1006.31
2018-04-07T04:31:49.171Z,1006.28
2018-04-07T04:32:49.151Z,1006.32
2018-04-07T04:33:49.132Z,1006.29
2018-04-07T04:34:49.111Z,1006.23
2018-04-07T04:35:49.098Z,1006.24
2018-04-07T04:36:49.082Z,1006.25
2018-04-07T04:37:49.063Z,1006.20
2018-04-07T04:38:49.040Z,1006.19
2018-04-07T04:39:49.019Z,1006.21
2018-04-07T04:40:49.002Z,1006.23
2018-04-07T04:41:48.982Z,1006.25
2018-04-07T04:42:48.960Z,1006.19
2018-04-07T04:43:48.941Z,1006.20
2018-04-07T04:44:48.919Z,1006.21
2018-04-07T04:45:48.903Z,1006.22
2018-04-07T04:46:48.880Z,1006.21
2018-04-07T04:47:48.862Z,1006.19
2018-04-07T04:48:48.841Z,1006.18
2018-04-07T04:49:48.824Z,1006.18
2018-04-07T04:50:48.807Z,1006.17
2018-04-07T04:51:48.791Z,1006.18
2018-04-07T04:52:48.775Z,1006.17
2018-04-07T04:53:48.751Z,1006.17
2018-04-07T04:54:48.727Z,1006.14
2018-04-07T04:55:48.706Z,1006.16
2018-04-07T04:56:48.691Z,1006.15
2018-04-07T04:57:48.671Z,1006.14
2018-04-07T04:58:48.652Z,1006.11
2018-04-07T04:59:48.635Z,1006.14
2018-04-07T05:00:48.609Z,1006.13
2018-04-07T05:01:48.590Z,1006.10
2018-04-07T05:02:48.571Z,1006.08
2018-04-07T05:03:48.554Z,1006.07
2018-04-07T05:04:48.531Z,1006.03
2018-04-07T05:05:48.522Z,1006.01
2018-04-07T05:06:48.499Z,1006.03
2018-04-07T05:07:48.478Z,1006.01
2018-04-07T05:08:48.458Z,1006.04
2018-04-07T05:09:48.438Z,1006.05
2018-04-07T05:10:48.421Z,1006.02
2018-04-07T05:11:48.402Z,1006.04
2018-04-07T05:12:48.381Z,1006.01
2018-04-07T05:13:48.370Z,1006.02
2018-04-07T05:14:48.342Z,1006.05
2018-04-07T05:15:48.327Z,1006.02
2018-04-07T05:16:48.301Z,1006.04
2018-04-07T05:17:48.282Z,1006.04
2018-04-07T05:18:48.262Z,1006.06
2018-04-07T05:19:48.254Z,1006.06
2018-04-07T05:20:48.223Z,1006.05
2018-04-07T05:21:48.211Z,1006.02
2018-04-07T05:22:48.193Z,1006.04
2018-04-07T05:23:48.173Z,1006.04
2018-04-07T05:24:48.150Z,1006.02
2018-04-07T05:25:48.131Z,1006.04
2018-04-07T05:26:48.111Z,1006.06
2018-04-07T05:27:48.093Z,1006.06
2018-04-07T05:28:48.068Z,1006.03
2018-04-07T05:29:48.051Z,1006.05
2018-04-07T05:30:48.033Z,1006.01
2018-04-07T05:31:48.010Z,1006.04
2018-04-07T05:32:47.992Z,1005.98
2018-04-07T05:33:47.974Z,1005.99
2018-04-07T05:34:47.951Z,1005.97
2018-04-07T05:35:47.942Z,1005.99
2018-04-07T05:36:47.917Z,1006.02
2018-04-07T05:37:47.901Z,1006.01
2018-04-07T05:38:47.877Z,1005.94
2018-04-07T05:39:47.866Z,1005.92
2018-04-07T05:40:47.835Z,1005.98
2018-04-07T05:41:47.822Z,1005.95
2018-04-07T05:42:47.800Z,1005.90
2018-04-07T05:43:47.784Z,1005.93
2018-04-07T05:44:47.763Z,1005.91
2018-04-07T05:45:47.752Z,1005.94
2018-04-07T05:46:47.729Z,1005.92
2018-04-07T05:47:47.704Z,1005.91
2018-04-07T05:48:47.692Z,1005.93
2018-04-07T05:49:47.684Z,1005.95
2018-04-07T05:50:47.656Z,1005.94
2018-04-07T05:51:47.631Z,1005.94
2018-04-07T05:52:47.607Z,1005.99
2018-04-07T05:53:47.596Z,1005.96
2018-04-07T05:54:47.621Z,1005.95
2018-04-07T05:55:47.552Z,1005.97
2018-04-07T05:56:47.542Z,1006.00
2018-04-07T05:57:47.512Z,1005.97
2018-04-07T05:58:47.499Z,1006.02
2018-04-07T05:59:47.481Z,1005.96
2018-04-07T06:00:47.459Z,1005.95
2018-04-07T06:01:47.436Z,1005.98
2018-04-07T06:02:47.417Z,1005.97
2018-04-07T06:03:47.411Z,1005.96
2018-04-07T06:04:47.383Z,1005.94
2018-04-07T06:05:47.361Z,1005.92
2018-04-07T06:06:47.343Z,1005.96
2018-04-07T06:07:47.322Z,1005.90
2018-04-07T06:08:47.311Z,1005.94
2018-04-07T06:09:47.295Z,1005.91
2018-04-07T06:10:47.268Z,1005.87
2018-04-07T06:11:47.253Z,1005.89
2018-04-07T06:12:47.230Z,1005.87
2018-04-07T06:13:47.213Z,1005.95
2018-04-07T06:14:47.194Z,1005.93
2018-04-07T06:15:47.179Z,1005.92
2018-04-07T06:16:47.157Z,1005.94
2018-04-07T06:17:47.143Z,1005.96
2018-04-07T06:18:47.122Z,1005.96
2018-04-07T06:19:47.098Z,1005.95
2018-04-07T06:20:47.083Z,1005.96
2018-04-07T06:21:47.071Z,1006.00
2018-04-07T06:22:47.091Z,1005.99
2018-04-07T06:23:47.029Z,1005.96
2018-04-07T06:24:47.008Z,1006.02
2018-04-07T06:25:46.990Z,1005.98
2018-04-07T06:26:46.973Z,1006.00
2018-04-07T06:27:46.951Z,1006.01
2018-04-07T06:28:46.954Z,1006.04
2018-04-07T06:29:46.914Z,1006.01
2018-04-07T06:30:46.901Z,1006.03
2018-04-07T06:31:46.877Z,1006.05
2018-04-07T06:32:46.859Z,1006.03
2018-04-07T06:33:46.838Z,1006.00
2018-04-07T06:34:46.821Z,1006.01
2018-04-07T06:35:46.803Z,1006.02
2018-04-07T06:36:46.783Z,1005.94
2018-04-07T06:37:46.775Z,1006.05
2018-04-07T06:38:46.759Z,1005.97
2018-04-07T06:39:46.732Z,1005.96
2018-04-07T06:40:46.721Z,1006.01
2018-04-07T06:41:46.694Z,1006.04
2018-04-07T06:42:46.683Z,1006.00
2018-04-07T06:43:46.657Z,1006.04
2018-04-07T06:44:46.649Z,1006.02
2018-04-07T06:45:46.627Z,1005.98
2018-04-07T06:46:46.615Z,1006.02
2018-04-07T06:47:46.598Z,1006.01
2018-04-07T06:48:46.568Z,1005.97
2018-04-07T06:49:46.550Z,1005.95
2018-04-07T06:50:46.540Z,1005.98
2018-04-07T06:51:46.523Z,1005.97
2018-04-07T06:52:46.514Z,1005.97
2018-04-07T06:53:46.485Z,1006.04
2018-04-07T06:54:46.472Z,1006.13
2018-04-07T06:55:46.450Z,1006.31
2018-04-07T06:56:46.475Z,1006.35
2018-04-07T06:57:46.419Z,1006.41
2018-04-07T06:58:46.409Z,1006.37
2018-04-07T06:59:46.397Z,1006.39
2018-04-07T07:00:46.379Z,1006.41
2018-04-07T07:01:46.368Z,1006.44
2018-04-07T07:02:46.351Z,1006.47
2018-04-07T07:03:46.340Z,1006.46
2018-04-07T07:04:46.327Z,1006.45
2018-04-07T07:05:46.313Z,1006.46
2018-04-07T07:06:46.303Z,1006.40
2018-04-07T07:07:46.296Z,1006.39
2018-04-07T07:08:46.280Z,1006.35
2018-04-07T07:09:46.278Z,1006.27
2018-04-07T07:10:46.270Z,1006.26
2018-04-07T07:11:46.249Z,1006.36
2018-04-07T07:12:46.241Z,1006.41
2018-04-07T07:13:46.230Z,1006.43
2018-04-07T07:14:46.219Z,1006.40
2018-04-07T07:15:46.210Z,1006.48
2018-04-07T07:16:46.204Z,1006.54
2018-04-07T07:17:46.190Z,1006.49
2018-04-07T07:18:46.182Z,1006.58
2018-04-07T07:19:46.226Z,1006.39
2018-04-07T07:20:46.161Z,1006.57
2018-04-07T07:21:46.158Z,1006.62
2018-04-07T07:22:46.155Z,1006.60
2018-04-07T07:23:46.197Z,1006.66
2018-04-07T07:24:46.127Z,1006.63
2018-04-07T07:25:46.117Z,1006.59
2018-04-07T07:26:46.110Z,1006.56
2018-04-07T07:27:46.160Z,1006.59
2018-04-07T07:28:46.094Z,1006.65
2018-04-07T07:29:46.087Z,1006.58
2018-04-07T07:30:46.079Z,1006.59
2018-04-07T07:31:46.074Z,1006.60
2018-04-07T07:32:46.071Z,1006.57
2018-04-07T07:33:46.062Z,1006.56
2018-04-07T07:34:46.053Z,1006.58
2018-04-07T07:35:46.045Z,1006.66
2018-04-07T07:36:46.099Z,1006.66
2018-04-07T07:37:46.032Z,1006.72
2018-04-07T07:38:46.029Z,1006.72
2018-04-07T07:39:46.022Z,1006.69
2018-04-07T07:40:46.011Z,1006.70
2018-04-07T07:41:46.006Z,1006.73
2018-04-07T07:42:46.010Z,1006.71
2018-04-07T07:43:46.001Z,1006.71
2018-04-07T07:44:45.995Z,1006.71
2018-04-07T07:45:45.988Z,1006.65
2018-04-07T07:46:46.066Z,1006.64
2018-04-07T07:47:45.984Z,1006.65
2018-04-07T07:48:45.972Z,1006.63
2018-04-07T07:49:45.971Z,1006.60
2018-04-07T07:50:45.974Z,1006.71
2018-04-07T07:51:45.961Z,1006.69
2018-04-07T07:52:46.012Z,1006.65
2018-04-07T07:53:45.950Z,1006.65
2018-04-07T07:54:45.949Z,1006.63
2018-04-07T07:55:45.943Z,1006.68
2018-04-07T07:56:45.942Z,1006.74
2018-04-07T07:57:45.935Z,1006.72
2018-04-07T07:58:45.960Z,1006.70
2018-04-07T07:59:45.927Z,1006.66
2018-04-07T08:00:45.923Z,1006.69
2018-04-07T08:01:45.921Z,1006.76
2018-04-07T08:02:45.974Z,1006.85
2018-04-07T08:03:45.915Z,1006.85
2018-04-07T08:04:45.915Z,1006.94
2018-04-07T08:05:45.912Z,1006.96
2018-04-07T08:06:45.916Z,1006.92
2018-04-07T08:07:45.907Z,1006.93
2018-04-07T08:08:45.907Z,1006.95
2018-04-07T08:09:45.902Z,1006.95
2018-04-07T08:10:45.915Z,1006.97
2018-04-07T08:11:45.908Z,1007.04
2018-04-07T08:12:45.902Z,1007.02
2018-04-07T08:13:45.900Z,1007.04
2018-04-07T08:14:45.906Z,1007.00
2018-04-07T08:15:45.901Z,1006.97
2018-04-07T08:16:45.902Z,1006.97
2018-04-07T08:17:45.902Z,1007.00
2018-04-07T08:18:45.913Z,1006.91
2018-04-07T08:19:45.922Z,1006.93
2018-04-07T08:20:45.973Z,1006.88
2018-04-07T08:21:45.964Z,1006.90
2018-04-07T08:22:45.911Z,1006.84
2018-04-07T08:23:45.907Z,1006.86
2018-04-07T08:24:45.903Z,1006.79
2018-04-07T08:25:45.910Z,1006.83
2018-04-07T08:26:45.915Z,1006.87
2018-04-07T08:27:45.912Z,1006.90
2018-04-07T08:28:45.911Z,1006.87
2018-04-07T08:29:45.969Z,1006.94
2018-04-07T08:30:45.912Z,1006.94
2018-04-07T08:31:45.916Z,1006.98
2018-04-07T08:32:45.914Z,1006.94
2018-04-07T08:33:45.918Z,1006.95
2018-04-07T08:34:45.916Z,1006.97
2018-04-07T08:35:45.927Z,1006.96
2018-04-07T08:36:45.918Z,1007.00
2018-04-07T08:37:45.923Z,1006.90
2018-04-07T08:38:45.920Z,1006.98
2018-04-07T08:39:45.933Z,1006.98
2018-04-07T08:40:45.921Z,1006.95
2018-04-07T08:41:45.928Z,1006.96
2018-04-07T08:42:45.929Z,1006.97
2018-04-07T08:43:45.927Z,1006.94
2018-04-07T08:44:45.935Z,1006.93
2018-04-07T08:45:45.931Z,1007.01
2018-04-07T08:46:45.936Z,1006.95
2018-04-07T08:47:45.935Z,1006.94
2018-04-07T08:48:45.984Z,1006.95
2018-04-07T08:49:45.943Z,1006.89
2018-04-07T08:50:45.946Z,1006.91
2018-04-07T08:51:45.945Z,1006.92
2018-04-07T08:52:45.950Z,1006.97
2018-04-07T08:53:45.960Z,1006.92
2018-04-07T08:54:45.955Z,1006.92
2018-04-07T08:55:45.963Z,1006.93
2018-04-07T08:56:45.960Z,1006.99
2018-04-07T08:57:45.966Z,1007.00
2018-04-07T08:58:45.982Z,1007.01
2018-04-07T08:59:45.971Z,1006.99
2018-04-07T09:00:45.974Z,1006.87
2018-04-07T09:01:45.978Z,1006.83
2018-04-07T09:02:45.978Z,1006.85
2018-04-07T09:03:45.981Z,1006.85
2018-04-07T09:04:45.988Z,1006.88
2018-04-07T09:05:45.985Z,1006.84
2018-04-07T09:06:45.989Z,1006.83
2018-04-07T09:07:45.997Z,1006.86
2018-04-07T09:08:45.997Z,1006.82
2018-04-07T09:09:46.047Z,1006.71
2018-04-07T09:10:46.020Z,1006.71
2018-04-07T09:11:46.104Z,1006.73
2018-04-07T09:12:46.013Z,1006.61
2018-04-07T09:13:46.017Z,1006.66
2018-04-07T09:14:46.007Z,1006.77
2018-04-07T09:15:46.008Z,1006.78
2018-04-07T09:16:46.010Z,1006.76
2018-04-07T09:17:46.009Z,1006.79
2018-04-07T09:18:46.012Z,1006.78
2018-04-07T09:19:46.019Z,1006.93
2018-04-07T09:20:46.017Z,1006.84
2018-04-07T09:21:46.019Z,1006.85
2018-04-07T09:22:46.017Z,1006.80
2018-04-07T09:23:46.017Z,1006.77
2018-04-07T09:24:46.019Z,1006.66
2018-04-07T09:25:46.054Z,1006.61
2018-04-07T09:26:46.016Z,1006.73
2018-04-07T09:27:46.016Z,1006.65
2018-04-07T09:28:46.016Z,1006.66
2018-04-07T09:29:46.014Z,1006.72
2018-04-07T09:30:46.014Z,1006.63
2018-04-07T09:31:46.008Z,1006.60
2018-04-07T09:32:46.013Z,1006.72
2018-04-07T09:33:46.007Z,1006.74
2018-04-07T09:34:46.118Z,1006.56
2018-04-07T09:35:46.009Z,1006.26
2018-04-07T09:36:46.057Z,1006.10
2018-04-07T09:37:46.000Z,1006.10
2018-04-07T09:38:46.000Z,1006.07
2018-04-07T09:39:45.998Z,1006.04
2018-04-07T09:40:46.012Z,1006.03
2018-04-07T09:41:45.994Z,1006.01
2018-04-07T09:42:45.991Z,1006.05
2018-04-07T09:43:45.996Z,1006.02
2018-04-07T09:44:45.992Z,1006.01
2018-04-07T09:45:45.987Z,1006.00
2018-04-07T09:46:45.978Z,1005.96
2018-04-07T09:47:45.974Z,1005.97
2018-04-07T09:48:45.974Z,1005.95
2018-04-07T09:49:45.967Z,1005.98
2018-04-07T09:50:45.961Z,1005.95
2018-04-07T09:51:45.958Z,1005.90
2018-04-07T09:52:45.957Z,1005.92
2018-04-07T09:53:45.949Z,1005.96
2018-04-07T09:54:45.962Z,1005.94
2018-04-07T09:55:45.943Z,1005.88
2018-04-07T09:56:45.935Z,1005.95
2018-04-07T09:57:45.930Z,1005.86
2018-04-07T09:58:45.928Z,1005.90
2018-04-07T09:59:45.991Z,1005.91
2018-04-07T10:00:45.922Z,1005.85
2018-04-07T10:01:45.916Z,1005.82
2018-04-07T10:02:45.922Z,1005.80
2018-04-07T10:03:45.905Z,1005.79
2018-04-07T10:04:45.898Z,1005.81
2018-04-07T10:05:45.891Z,1005.82
2018-04-07T10:06:45.889Z,1005.78
2018-04-07T10:07:45.882Z,1005.79
2018-04-07T10:08:45.893Z,1005.76
2018-04-07T10:09:45.878Z,1005.74
2018-04-07T10:10:45.872Z,1005.76
2018-04-07T10:11:45.866Z,1005.75
2018-04-07T10:12:45.864Z,1005.67
2018-04-07T10:13:45.845Z,1005.70
2018-04-07T10:14:45.840Z,1005.79
2018-04-07T10:15:45.847Z,1005.69
2018-04-07T10:16:45.837Z,1005.75
2018-04-07T10:17:45.823Z,1005.74
2018-04-07T10:18:45.817Z,1005.72
2018-04-07T10:19:45.812Z,1005.73
2018-04-07T10:20:45.803Z,1005.72
2018-04-07T10:21:45.804Z,1005.70
2018-04-07T10:22:45.794Z,1005.70
2018-04-07T10:23:45.785Z,1005.74
2018-04-07T10:24:45.774Z,1005.67
2018-04-07T10:25:45.765Z,1005.64
2018-04-07T10:26:45.767Z,1005.61
2018-04-07T10:27:45.753Z,1005.64
2018-04-07T10:28:45.757Z,1005.62
2018-04-07T10:29:45.736Z,1005.62
2018-04-07T10:30:45.732Z,1005.58
2018-04-07T10:31:45.733Z,1005.54
2018-04-07T10:32:45.714Z,1005.60
2018-04-07T10:33:45.713Z,1005.55
2018-04-07T10:34:45.702Z,1005.60
2018-04-07T10:35:45.704Z,1005.63
2018-04-07T10:36:45.694Z,1005.60
2018-04-07T10:37:45.684Z,1005.63
2018-04-07T10:38:45.675Z,1005.61
2018-04-07T10:39:45.681Z,1005.56
2018-04-07T10:40:45.672Z,1005.44
2018-04-07T10:41:45.665Z,1005.49
2018-04-07T10:42:45.657Z,1005.46
2018-04-07T10:43:45.642Z,1005.49
2018-04-07T10:44:45.632Z,1005.50
2018-04-07T10:45:45.630Z,1005.49
2018-04-07T10:46:45.621Z,1005.48
2018-04-07T10:47:45.611Z,1005.43
2018-04-07T10:48:45.601Z,1005.42
2018-04-07T10:49:45.603Z,1005.34
2018-04-07T10:50:45.599Z,1005.33
2018-04-07T10:51:45.592Z,1005.30
2018-04-07T10:52:45.659Z,1005.33
2018-04-07T10:53:45.568Z,1005.31
2018-04-07T10:54:45.571Z,1005.31
2018-04-07T10:55:45.563Z,1005.28
2018-04-07T10:56:45.550Z,1005.26
2018-04-07T10:57:45.562Z,1005.24
2018-04-07T10:58:45.532Z,1005.25
2018-04-07T10:59:45.525Z,1005.21
2018-04-07T11:00:45.524Z,1005.23
2018-04-07T11:01:45.510Z,1005.17
2018-04-07T11:02:45.513Z,1005.13
2018-04-07T11:03:45.497Z,1005.17
2018-04-07T11:04:45.495Z,1005.11
2018-04-07T11:05:45.491Z,1005.16
2018-04-07T11:06:45.479Z,1005.16
2018-04-07T11:07:45.470Z,1005.18
2018-04-07T11:08:45.461Z,1005.22
2018-04-07T11:09:45.461Z,1005.22
2018-04-07T11:10:45.452Z,1005.24
2018-04-07T11:11:45.444Z,1005.20
2018-04-07T11:12:45.431Z,1005.22
2018-04-07T11:13:45.433Z,1005.25
2018-04-07T11:14:45.425Z,1005.20
2018-04-07T11:15:45.414Z,1005.17
2018-04-07T11:16:45.406Z,1005.19
2018-04-07T11:17:45.402Z,1005.16
2018-04-07T11:18:45.387Z,1005.23
2018-04-07T11:19:45.384Z,1005.17
2018-04-07T11:20:45.374Z,1005.17
2018-04-07T11:21:45.376Z,1005.12
2018-04-07T11:22:45.365Z,1005.11
2018-04-07T11:23:45.353Z,1005.09
2018-04-07T11:24:45.353Z,1005.11
2018-04-07T11:25:45.350Z,1005.16
2018-04-07T11:26:45.333Z,1005.09
2018-04-07T11:27:45.365Z,1005.11
2018-04-07T11:28:45.320Z,1005.03
2018-04-07T11:29:45.313Z,1005.06
2018-04-07T11:30:45.303Z,1005.01
2018-04-07T11:31:45.395Z,1005.05
2018-04-07T11:32:45.294Z,1005.01
2018-04-07T11:33:45.286Z,1005.00
2018-04-07T11:34:45.278Z,1004.98
2018-04-07T11:35:45.273Z,1005.03
2018-04-07T11:36:45.262Z,1004.98
2018-04-07T11:37:45.254Z,1005.01
2018-04-07T11:38:45.245Z,1005.03
2018-04-07T11:39:45.245Z,1005.03
2018-04-07T11:40:45.231Z,1005.08
2018-04-07T11:41:45.224Z,1004.98
2018-04-07T11:42:45.222Z,1004.93
2018-04-07T11:43:45.211Z,1004.93
2018-04-07T11:44:45.206Z,1004.93
2018-04-07T11:45:45.202Z,1004.93
2018-04-07T11:46:45.187Z,1004.90
2018-04-07T11:47:45.187Z,1004.91
2018-04-07T11:48:45.172Z,1004.88
2018-04-07T11:49:45.175Z,1004.87
2018-04-07T11:50:45.169Z,1004.91
2018-04-07T11:51:45.152Z,1004.91
2018-04-07T11:52:45.142Z,1004.84
2018-04-07T11:53:45.138Z,1004.87
2018-04-07T11:54:45.138Z,1004.85
2018-04-07T11:55:45.122Z,1004.83
2018-04-07T11:56:45.124Z,1004.85
2018-04-07T11:57:45.110Z,1004.85
2018-04-07T11:58:45.100Z,1004.82
2018-04-07T11:59:45.093Z,1004.81
2018-04-07T12:00:45.087Z,1004.82
2018-04-07T12:01:45.089Z,1004.78
2018-04-07T12:02:45.137Z,1004.77
2018-04-07T12:03:45.067Z,1004.79
2018-04-07T12:04:45.062Z,1004.73
2018-04-07T12:05:45.054Z,1004.76